sensor_id;sensor_type;location;lat;lon;timestamp;pressure;altitude;pressure_sealevel;temperature;humidity
9774;BME280;4926;42.670;23.316;2022-09-13T00:00:57;94371.69;;;16.01;89.31
9774;BME280;4926;42.670;23.316;2022-09-13T00:03:24;94368.38;;;15.96;90.08
9774;BME280;4926;42.670;23.316;2022-09-13T00:05:54;94368.53;;;15.99;90.13
9774;BME280;4926;42.670;23.316;2022-09-13T00:08:20;94372.34;;;15.98;90.47
9774;BME280;4926;42.670;23.316;2022-09-13T00:10:48;94364.00;;;15.91;91.52
9774;BME280;4926;42.670;23.316;2022-09-13T00:13:16;94361.13;;;15.96;91.61
9774;BME280;4926;42.670;23.316;2022-09-13T00:15:45;94363.69;;;15.93;91.73
9774;BME280;4926;42.670;23.316;2022-09-13T00:18:12;94353.53;;;15.98;91.39
9774;BME280;4926;42.670;23.316;2022-09-13T00:20:39;94354.63;;;16.06;91.34
9774;BME280;4926;42.670;23.316;2022-09-13T00:23:06;94343.88;;;16.06;91.32
9774;BME280;4926;42.670;23.316;2022-09-13T00:25:33;94344.00;;;16.09;91.07
9774;BME280;4926;42.670;23.316;2022-09-13T00:28:05;94339.53;;;16.13;90.86
9774;BME280;4926;42.670;23.316;2022-09-13T00:30:34;94350.28;;;16.13;90.86
9774;BME280;4926;42.670;23.316;2022-09-13T00:33:00;94342.75;;;16.07;91.44
9774;BME280;4926;42.670;23.316;2022-09-13T00:35:28;94345.69;;;16.14;91.08
9774;BME280;4926;42.670;23.316;2022-09-13T00:37:58;94337.31;;;16.15;90.82
9774;BME280;4926;42.670;23.316;2022-09-13T00:40:25;94334.63;;;16.15;90.88
9774;BME280;4926;42.670;23.316;2022-09-13T00:43:02;94344.72;;;16.18;91.10
9774;BME280;4926;42.670;23.316;2022-09-13T00:45:29;94342.50;;;16.20;90.84
9774;BME280;4926;42.670;23.316;2022-09-13T00:47:58;94337.59;;;16.22;90.86
9774;BME280;4926;42.670;23.316;2022-09-13T00:50:29;94341.25;;;16.18;91.18
9774;BME280;4926;42.670;23.316;2022-09-13T00:53:05;94340.72;;;16.24;90.51
9774;BME280;4926;42.670;23.316;2022-09-13T00:55:37;94329.53;;;16.22;90.41
9774;BME280;4926;42.670;23.316;2022-09-13T00:58:10;94328.44;;;16.23;90.29
9774;BME280;4926;42.670;23.316;2022-09-13T01:00:40;94324.63;;;16.24;90.46
9774;BME280;4926;42.670;23.316;2022-09-13T01:03:11;94338.50;;;16.26;90.31
9774;BME280;4926;42.670;23.316;2022-09-13T01:05:41;94333.41;;;16.33;89.58
9774;BME280;4926;42.670;23.316;2022-09-13T01:08:10;94333.88;;;16.35;89.42
9774;BME280;4926;42.670;23.316;2022-09-13T01:10:40;94334.47;;;16.41;88.99
9774;BME280;4926;42.670;23.316;2022-09-13T01:13:12;94326.56;;;16.36;88.79
9774;BME280;4926;42.670;23.316;2022-09-13T01:15:44;94330.72;;;16.33;89.08
9774;BME280;4926;42.670;23.316;2022-09-13T01:18:16;94326.19;;;16.25;89.99
9774;BME280;4926;42.670;23.316;2022-09-13T01:20:57;94329.78;;;16.29;89.58
9774;BME280;4926;42.670;23.316;2022-09-13T01:23:44;94325.69;;;16.32;90.04
9774;BME280;4926;42.670;23.316;2022-09-13T01:26:48;94327.09;;;16.29;89.74
9774;BME280;4926;42.670;23.316;2022-09-13T01:32:28;94322.53;;;16.30;89.39
9774;BME280;4926;42.670;23.316;2022-09-13T01:35:12;94324.22;;;16.34;89.31
9774;BME280;4926;42.670;23.316;2022-09-13T01:37:48;94312.38;;;16.35;89.06
9774;BME280;4926;42.670;23.316;2022-09-13T01:40:30;94319.97;;;16.33;89.35
9774;BME280;4926;42.670;23.316;2022-09-13T01:43:12;94319.50;;;16.31;89.33
9774;BME280;4926;42.670;23.316;2022-09-13T01:45:47;94317.63;;;16.32;89.45
9774;BME280;4926;42.670;23.316;2022-09-13T01:48:26;94308.31;;;16.29;89.23
9774;BME280;4926;42.670;23.316;2022-09-13T01:51:00;94321.25;;;16.27;89.84
9774;BME280;4926;42.670;23.316;2022-09-13T01:53:44;94319.25;;;16.24;90.44
9774;BME280;4926;42.670;23.316;2022-09-13T01:56:22;94319.25;;;16.24;90.42
9774;BME280;4926;42.670;23.316;2022-09-13T01:58:55;94319.13;;;16.21;90.29
9774;BME280;4926;42.670;23.316;2022-09-13T02:01:25;94314.53;;;16.21;90.39
9774;BME280;4926;42.670;23.316;2022-09-13T02:03:58;94305.47;;;16.05;91.58
9774;BME280;4926;42.670;23.316;2022-09-13T02:06:31;94311.13;;;16.12;91.33
9774;BME280;4926;42.670;23.316;2022-09-13T02:09:01;94308.44;;;16.12;91.36
9774;BME280;4926;42.670;23.316;2022-09-13T02:11:29;94318.84;;;16.14;91.58
9774;BME280;4926;42.670;23.316;2022-09-13T02:14:13;94306.94;;;16.23;91.17
9774;BME280;4926;42.670;23.316;2022-09-13T02:16:44;94299.06;;;16.18;90.87
9774;BME280;4926;42.670;23.316;2022-09-13T02:19:19;94314.88;;;16.20;90.74
9774;BME280;4926;42.670;23.316;2022-09-13T02:21:51;94310.72;;;16.22;90.98
9774;BME280;4926;42.670;23.316;2022-09-13T02:24:24;94316.44;;;16.21;90.73
9774;BME280;4926;42.670;23.316;2022-09-13T02:26:57;94305.56;;;16.17;90.93
9774;BME280;4926;42.670;23.316;2022-09-13T02:29:25;94303.78;;;16.21;90.85
9774;BME280;4926;42.670;23.316;2022-09-13T02:31:56;94312.69;;;16.13;91.42
9774;BME280;4926;42.670;23.316;2022-09-13T02:34:31;94294.28;;;16.03;91.05
9774;BME280;4926;42.670;23.316;2022-09-13T02:37:03;94313.59;;;16.17;90.68
9774;BME280;4926;42.670;23.316;2022-09-13T02:39:32;94317.16;;;16.09;90.77
9774;BME280;4926;42.670;23.316;2022-09-13T02:42:05;94314.50;;;16.01;91.55
9774;BME280;4926;42.670;23.316;2022-09-13T02:44:35;94315.06;;;15.86;92.88
9774;BME280;4926;42.670;23.316;2022-09-13T02:47:13;94313.19;;;15.86;92.77
9774;BME280;4926;42.670;23.316;2022-09-13T02:49:54;94323.25;;;15.89;93.02
9774;BME280;4926;42.670;23.316;2022-09-13T02:52:33;94316.97;;;15.85;93.23
9774;BME280;4926;42.670;23.316;2022-09-13T02:55:11;94314.94;;;15.82;93.43
9774;BME280;4926;42.670;23.316;2022-09-13T02:57:51;94310.41;;;15.74;93.94
9774;BME280;4926;42.670;23.316;2022-09-13T03:00:22;94315.66;;;15.71;94.17
9774;BME280;4926;42.670;23.316;2022-09-13T03:02:50;94319.09;;;15.71;94.17
9774;BME280;4926;42.670;23.316;2022-09-13T03:05:23;94319.56;;;15.73;94.10
9774;BME280;4926;42.670;23.316;2022-09-13T03:07:50;94318.00;;;15.72;93.84
9774;BME280;4926;42.670;23.316;2022-09-13T03:10:18;94315.13;;;15.77;93.41
9774;BME280;4926;42.670;23.316;2022-09-13T03:13:21;94317.06;;;15.68;93.68
9774;BME280;4926;42.670;23.316;2022-09-13T03:16:02;94318.81;;;15.64;93.99
9774;BME280;4926;42.670;23.316;2022-09-13T03:18:43;94315.84;;;15.57;95.02
9774;BME280;4926;42.670;23.316;2022-09-13T03:21:27;94321.06;;;15.62;95.27
9774;BME280;4926;42.670;23.316;2022-09-13T03:24:16;94316.13;;;15.64;94.98
9774;BME280;4926;42.670;23.316;2022-09-13T03:26:56;94319.09;;;15.71;93.97
9774;BME280;4926;42.670;23.316;2022-09-13T03:29:31;94317.34;;;15.75;93.60
9774;BME280;4926;42.670;23.316;2022-09-13T03:32:17;94314.47;;;15.80;93.38
9774;BME280;4926;42.670;23.316;2022-09-13T03:34:54;94324.13;;;15.81;93.01
9774;BME280;4926;42.670;23.316;2022-09-13T03:37:32;94318.41;;;15.83;92.00
9774;BME280;4926;42.670;23.316;2022-09-13T03:40:04;94315.47;;;15.76;92.43
9774;BME280;4926;42.670;23.316;2022-09-13T03:42:41;94319.28;;;15.66;92.45
9774;BME280;4926;42.670;23.316;2022-09-13T03:45:10;94317.72;;;15.65;93.12
9774;BME280;4926;42.670;23.316;2022-09-13T03:47:39;94327.66;;;15.64;93.37
9774;BME280;4926;42.670;23.316;2022-09-13T03:50:09;94320.88;;;15.67;92.64
9774;BME280;4926;42.670;23.316;2022-09-13T03:52:42;94322.25;;;15.73;93.53
9774;BME280;4926;42.670;23.316;2022-09-13T03:55:12;94322.75;;;15.67;93.38
9774;BME280;4926;42.670;23.316;2022-09-13T03:57:39;94326.25;;;15.67;93.00
9774;BME280;4926;42.670;23.316;2022-09-13T04:00:07;94328.47;;;15.65;94.08
9774;BME280;4926;42.670;23.316;2022-09-13T04:02:36;94329.47;;;15.81;91.47
9774;BME280;4926;42.670;23.316;2022-09-13T04:05:03;94322.72;;;15.75;91.03
9774;BME280;4926;42.670;23.316;2022-09-13T04:07:30;94328.75;;;15.72;91.73
9774;BME280;4926;42.670;23.316;2022-09-13T04:09:58;94333.31;;;15.72;91.69
9774;BME280;4926;42.670;23.316;2022-09-13T04:12:28;94329.97;;;15.75;91.56
9774;BME280;4926;42.670;23.316;2022-09-13T04:14:55;94306.72;;;15.58;91.18
9774;BME280;4926;42.670;23.316;2022-09-13T04:17:22;94327.00;;;15.76;91.16
9774;BME280;4926;42.670;23.316;2022-09-13T04:19:49;94329.16;;;15.83;90.61
9774;BME280;4926;42.670;23.316;2022-09-13T04:22:15;94321.63;;;15.76;89.75
9774;BME280;4926;42.670;23.316;2022-09-13T04:24:42;94333.31;;;15.72;89.86
9774;BME280;4926;42.670;23.316;2022-09-13T04:27:14;94333.13;;;15.77;89.90
9774;BME280;4926;42.670;23.316;2022-09-13T04:29:41;94335.19;;;15.71;90.13
9774;BME280;4926;42.670;23.316;2022-09-13T04:32:07;94336.59;;;15.77;90.23
9774;BME280;4926;42.670;23.316;2022-09-13T04:34:36;94337.25;;;15.74;90.04
9774;BME280;4926;42.670;23.316;2022-09-13T04:37:03;94345.13;;;15.79;89.75
9774;BME280;4926;42.670;23.316;2022-09-13T04:39:30;94351.16;;;15.76;89.78
9774;BME280;4926;42.670;23.316;2022-09-13T04:41:57;94343.84;;;15.77;89.68
9774;BME280;4926;42.670;23.316;2022-09-13T04:44:25;94351.16;;;15.76;88.99
9774;BME280;4926;42.670;23.316;2022-09-13T04:46:52;94352.53;;;15.82;88.61
9774;BME280;4926;42.670;23.316;2022-09-13T04:49:20;94348.41;;;15.85;88.40
9774;BME280;4926;42.670;23.316;2022-09-13T04:51:47;94352.69;;;15.77;88.28
9774;BME280;4926;42.670;23.316;2022-09-13T04:54:14;94359.63;;;15.78;88.80
9774;BME280;4926;42.670;23.316;2022-09-13T04:56:41;94356.50;;;15.76;88.68
9774;BME280;4926;42.670;23.316;2022-09-13T04:59:08;94351.16;;;15.76;88.19
9774;BME280;4926;42.670;23.316;2022-09-13T05:01:37;94364.09;;;15.74;88.69
9774;BME280;4926;42.670;23.316;2022-09-13T05:04:05;94356.66;;;15.71;88.87
9774;BME280;4926;42.670;23.316;2022-09-13T05:06:32;94362.16;;;15.83;88.91
9774;BME280;4926;42.670;23.316;2022-09-13T05:08:59;94365.28;;;15.85;89.05
9774;BME280;4926;42.670;23.316;2022-09-13T05:11:26;94361.31;;;15.91;88.78
9774;BME280;4926;42.670;23.316;2022-09-13T05:13:55;94352.00;;;15.89;88.82
9774;BME280;4926;42.670;23.316;2022-09-13T05:16:23;94359.19;;;16.05;88.09
9774;BME280;4926;42.670;23.316;2022-09-13T05:18:52;94357.69;;;16.16;87.86
9774;BME280;4926;42.670;23.316;2022-09-13T05:21:19;94347.41;;;16.18;87.39
9774;BME280;4926;42.670;23.316;2022-09-13T05:23:48;94352.13;;;16.42;85.98
9774;BME280;4926;42.670;23.316;2022-09-13T05:26:17;94355.59;;;16.51;84.00
9774;BME280;4926;42.670;23.316;2022-09-13T05:28:44;94353.34;;;16.53;82.47
9774;BME280;4926;42.670;23.316;2022-09-13T05:31:14;94355.72;;;16.54;82.51
9774;BME280;4926;42.670;23.316;2022-09-13T05:33:45;94352.69;;;16.56;80.88
9774;BME280;4926;42.670;23.316;2022-09-13T05:36:14;94367.56;;;16.53;80.69
9774;BME280;4926;42.670;23.316;2022-09-13T05:38:40;94361.72;;;16.51;80.53
9774;BME280;4926;42.670;23.316;2022-09-13T05:41:07;94356.94;;;16.57;80.01
9774;BME280;4926;42.670;23.316;2022-09-13T05:43:35;94358.53;;;16.58;80.02
9774;BME280;4926;42.670;23.316;2022-09-13T05:46:04;94357.53;;;16.62;79.41
9774;BME280;4926;42.670;23.316;2022-09-13T05:48:33;94359.69;;;16.69;78.92
9774;BME280;4926;42.670;23.316;2022-09-13T05:51:07;94367.69;;;16.78;78.71
9774;BME280;4926;42.670;23.316;2022-09-13T05:53:40;94363.63;;;16.71;78.24
9774;BME280;4926;42.670;23.316;2022-09-13T05:56:11;94372.28;;;16.77;78.11
9774;BME280;4926;42.670;23.316;2022-09-13T05:58:39;94359.81;;;16.72;77.88
9774;BME280;4926;42.670;23.316;2022-09-13T06:01:10;94367.56;;;16.74;77.84
9774;BME280;4926;42.670;23.316;2022-09-13T06:03:37;94362.13;;;16.62;78.27
9774;BME280;4926;42.670;23.316;2022-09-13T06:06:05;94354.66;;;16.67;78.49
9774;BME280;4926;42.670;23.316;2022-09-13T06:08:33;94359.50;;;16.74;77.50
9774;BME280;4926;42.670;23.316;2022-09-13T06:11:04;94365.25;;;16.64;77.74
9774;BME280;4926;42.670;23.316;2022-09-13T06:13:34;94354.97;;;16.66;77.64
9774;BME280;4926;42.670;23.316;2022-09-13T06:16:03;94365.16;;;16.81;77.36
9774;BME280;4926;42.670;23.316;2022-09-13T06:18:36;94366.56;;;16.79;76.88
9774;BME280;4926;42.670;23.316;2022-09-13T06:21:04;94367.38;;;16.79;77.07
9774;BME280;4926;42.670;23.316;2022-09-13T06:23:34;94373.34;;;16.85;76.99
9774;BME280;4926;42.670;23.316;2022-09-13T06:26:04;94381.13;;;16.98;76.74
9774;BME280;4926;42.670;23.316;2022-09-13T06:28:31;94376.44;;;17.07;76.86
9774;BME280;4926;42.670;23.316;2022-09-13T06:30:59;94377.06;;;17.25;76.43
9774;BME280;4926;42.670;23.316;2022-09-13T06:33:26;94381.16;;;17.55;75.62
9774;BME280;4926;42.670;23.316;2022-09-13T06:35:53;94385.91;;;17.58;75.21
9774;BME280;4926;42.670;23.316;2022-09-13T06:38:20;94389.25;;;17.55;74.77
9774;BME280;4926;42.670;23.316;2022-09-13T06:40:57;94399.78;;;17.48;74.60
9774;BME280;4926;42.670;23.316;2022-09-13T06:43:27;94387.25;;;17.64;74.78
9774;BME280;4926;42.670;23.316;2022-09-13T06:45:58;94387.03;;;17.81;74.13
9774;BME280;4926;42.670;23.316;2022-09-13T06:48:33;94388.28;;;18.20;72.53
9774;BME280;4926;42.670;23.316;2022-09-13T06:51:05;94394.34;;;18.41;71.33
9774;BME280;4926;42.670;23.316;2022-09-13T06:53:37;94394.88;;;18.58;71.05
9774;BME280;4926;42.670;23.316;2022-09-13T06:56:06;94396.31;;;18.80;69.53
9774;BME280;4926;42.670;23.316;2022-09-13T06:58:36;94393.47;;;18.88;68.40
9774;BME280;4926;42.670;23.316;2022-09-13T07:01:08;94395.22;;;18.97;68.28
9774;BME280;4926;42.670;23.316;2022-09-13T07:03:36;94392.00;;;19.19;67.37
9774;BME280;4926;42.670;23.316;2022-09-13T07:06:11;94390.94;;;19.35;66.16
9774;BME280;4926;42.670;23.316;2022-09-13T07:08:39;94405.53;;;19.62;65.21
9774;BME280;4926;42.670;23.316;2022-09-13T07:11:07;94396.22;;;19.75;64.24
9774;BME280;4926;42.670;23.316;2022-09-13T07:13:35;94394.56;;;19.86;64.14
9774;BME280;4926;42.670;23.316;2022-09-13T07:16:10;94396.22;;;20.06;62.37
9774;BME280;4926;42.670;23.316;2022-09-13T07:18:40;94391.44;;;20.15;61.80
9774;BME280;4926;42.670;23.316;2022-09-13T07:21:08;94396.84;;;20.31;61.10
9774;BME280;4926;42.670;23.316;2022-09-13T07:23:36;94393.72;;;20.29;60.61
9774;BME280;4926;42.670;23.316;2022-09-13T07:26:04;94400.63;;;20.45;60.62
9774;BME280;4926;42.670;23.316;2022-09-13T07:28:35;94399.16;;;20.48;60.86
9774;BME280;4926;42.670;23.316;2022-09-13T07:31:07;94397.06;;;20.57;59.14
9774;BME280;4926;42.670;23.316;2022-09-13T07:33:39;94388.03;;;20.68;58.12
9774;BME280;4926;42.670;23.316;2022-09-13T07:36:08;94384.09;;;21.00;57.37
9774;BME280;4926;42.670;23.316;2022-09-13T07:38:42;94374.41;;;20.99;55.20
9774;BME280;4926;42.670;23.316;2022-09-13T07:41:11;94379.38;;;20.97;55.49
9774;BME280;4926;42.670;23.316;2022-09-13T07:43:41;94379.19;;;21.06;55.85
9774;BME280;4926;42.670;23.316;2022-09-13T07:46:10;94378.94;;;20.95;55.04
9774;BME280;4926;42.670;23.316;2022-09-13T07:48:39;94382.78;;;20.94;56.70
9774;BME280;4926;42.670;23.316;2022-09-13T07:51:10;94384.38;;;21.34;53.93
9774;BME280;4926;42.670;23.316;2022-09-13T07:53:41;94379.94;;;21.26;53.42
9774;BME280;4926;42.670;23.316;2022-09-13T07:56:09;94379.81;;;21.19;54.00
9774;BME280;4926;42.670;23.316;2022-09-13T07:58:38;94376.03;;;21.42;53.75
9774;BME280;4926;42.670;23.316;2022-09-13T08:01:08;94382.78;;;21.93;53.10
9774;BME280;4926;42.670;23.316;2022-09-13T08:03:38;94369.44;;;22.30;51.41
9774;BME280;4926;42.670;23.316;2022-09-13T08:06:06;94362.09;;;22.57;50.37
9774;BME280;4926;42.670;23.316;2022-09-13T08:08:33;94364.44;;;22.58;50.15
9774;BME280;4926;42.670;23.316;2022-09-13T08:11:02;94367.31;;;22.43;50.00
9774;BME280;4926;42.670;23.316;2022-09-13T08:13:29;94356.69;;;22.57;49.95
9774;BME280;4926;42.670;23.316;2022-09-13T08:16:00;94358.28;;;22.61;48.79
9774;BME280;4926;42.670;23.316;2022-09-13T08:18:29;94365.72;;;21.93;49.85
9774;BME280;4926;42.670;23.316;2022-09-13T08:21:02;94366.38;;;21.64;49.83
9774;BME280;4926;42.670;23.316;2022-09-13T08:23:29;94367.13;;;21.23;50.10
9774;BME280;4926;42.670;23.316;2022-09-13T08:26:04;94374.53;;;21.06;50.77
9774;BME280;4926;42.670;23.316;2022-09-13T08:28:33;94364.03;;;21.43;50.19
9774;BME280;4926;42.670;23.316;2022-09-13T08:31:04;94345.41;;;21.83;47.01
9774;BME280;4926;42.670;23.316;2022-09-13T08:33:32;94331.78;;;22.25;45.97
9774;BME280;4926;42.670;23.316;2022-09-13T08:35:59;94328.47;;;22.94;45.45
9774;BME280;4926;42.670;23.316;2022-09-13T08:38:26;94319.72;;;22.78;44.02
9774;BME280;4926;42.670;23.316;2022-09-13T08:40:56;94325.16;;;22.78;44.86
9774;BME280;4926;42.670;23.316;2022-09-13T08:43:34;94331.50;;;22.89;45.34
9774;BME280;4926;42.670;23.316;2022-09-13T08:46:14;94325.16;;;23.45;44.53
9774;BME280;4926;42.670;23.316;2022-09-13T08:48:46;94317.47;;;23.50;44.27
9774;BME280;4926;42.670;23.316;2022-09-13T08:51:30;94316.13;;;23.00;44.19
9774;BME280;4926;42.670;23.316;2022-09-13T08:53:58;94321.94;;;22.43;44.60
9774;BME280;4926;42.670;23.316;2022-09-13T08:56:35;94316.38;;;22.06;44.41
9774;BME280;4926;42.670;23.316;2022-09-13T08:59:25;94317.06;;;21.55;43.40
9774;BME280;4926;42.670;23.316;2022-09-13T09:02:01;94309.66;;;22.23;43.10
9774;BME280;4926;42.670;23.316;2022-09-13T09:04:37;94310.63;;;22.93;43.11
9774;BME280;4926;42.670;23.316;2022-09-13T09:07:10;94303.41;;;23.85;42.67
9774;BME280;4926;42.670;23.316;2022-09-13T09:09:41;94298.66;;;24.22;40.67
9774;BME280;4926;42.670;23.316;2022-09-13T09:12:14;94268.38;;;24.27;39.68
9774;BME280;4926;42.670;23.316;2022-09-13T09:14:45;94288.31;;;23.91;40.77
9774;BME280;4926;42.670;23.316;2022-09-13T09:17:19;94297.31;;;23.98;41.27
9774;BME280;4926;42.670;23.316;2022-09-13T09:19:53;94300.06;;;23.55;41.74
9774;BME280;4926;42.670;23.316;2022-09-13T09:22:24;94307.78;;;23.53;42.58
9774;BME280;4926;42.670;23.316;2022-09-13T09:24:56;94304.38;;;23.26;42.45
9774;BME280;4926;42.670;23.316;2022-09-13T09:27:23;94308.91;;;22.82;42.22
9774;BME280;4926;42.670;23.316;2022-09-13T09:29:53;94299.63;;;22.27;41.84
9774;BME280;4926;42.670;23.316;2022-09-13T09:32:36;94299.03;;;22.67;41.76
9774;BME280;4926;42.670;23.316;2022-09-13T09:35:18;94301.56;;;22.82;41.87
9774;BME280;4926;42.670;23.316;2022-09-13T09:38:02;94303.56;;;22.89;42.70
9774;BME280;4926;42.670;23.316;2022-09-13T09:40:36;94292.09;;;23.36;41.53
9774;BME280;4926;42.670;23.316;2022-09-13T09:43:14;94279.00;;;23.92;40.76
9774;BME280;4926;42.670;23.316;2022-09-13T09:45:44;94269.81;;;24.07;39.80
9774;BME280;4926;42.670;23.316;2022-09-13T09:48:14;94274.22;;;24.29;41.05
9774;BME280;4926;42.670;23.316;2022-09-13T09:50:49;94260.00;;;24.60;40.33
9774;BME280;4926;42.670;23.316;2022-09-13T09:53:26;94266.97;;;24.47;40.58
9774;BME280;4926;42.670;23.316;2022-09-13T09:55:57;94263.22;;;24.76;39.92
9774;BME280;4926;42.670;23.316;2022-09-13T09:58:37;94257.22;;;25.57;38.96
9774;BME280;4926;42.670;23.316;2022-09-13T10:01:16;94243.50;;;25.11;38.74
9774;BME280;4926;42.670;23.316;2022-09-13T10:03:49;94253.81;;;24.63;40.17
9774;BME280;4926;42.670;23.316;2022-09-13T10:06:23;94257.25;;;24.53;40.03
9774;BME280;4926;42.670;23.316;2022-09-13T10:08:58;94243.69;;;24.67;39.71
9774;BME280;4926;42.670;23.316;2022-09-13T10:11:43;94258.50;;;24.66;40.45
9774;BME280;4926;42.670;23.316;2022-09-13T10:14:36;94239.31;;;25.63;39.15
9774;BME280;4926;42.670;23.316;2022-09-13T10:17:15;94220.44;;;26.74;37.37
9774;BME280;4926;42.670;23.316;2022-09-13T10:19:54;94214.81;;;27.05;36.37
9774;BME280;4926;42.670;23.316;2022-09-13T10:22:25;94214.13;;;26.87;36.38
9774;BME280;4926;42.670;23.316;2022-09-13T10:24:52;94210.47;;;25.97;37.31
9774;BME280;4926;42.670;23.316;2022-09-13T10:27:31;94215.16;;;25.79;37.73
9774;BME280;4926;42.670;23.316;2022-09-13T10:30:01;94207.34;;;26.02;37.43
9774;BME280;4926;42.670;23.316;2022-09-13T10:32:30;94211.50;;;26.73;36.65
9774;BME280;4926;42.670;23.316;2022-09-13T10:35:06;94193.19;;;27.35;35.67
9774;BME280;4926;42.670;23.316;2022-09-13T10:37:35;94182.63;;;27.85;34.18
9774;BME280;4926;42.670;23.316;2022-09-13T10:40:11;94188.56;;;27.77;34.63
9774;BME280;4926;42.670;23.316;2022-09-13T10:42:52;94186.66;;;27.70;34.32
9774;BME280;4926;42.670;23.316;2022-09-13T10:45:23;94186.38;;;27.58;34.93
9774;BME280;4926;42.670;23.316;2022-09-13T10:47:53;94182.22;;;27.87;35.18
9774;BME280;4926;42.670;23.316;2022-09-13T10:50:23;94161.16;;;28.24;33.75
9774;BME280;4926;42.670;23.316;2022-09-13T10:52:52;94152.28;;;28.81;33.91
9774;BME280;4926;42.670;23.316;2022-09-13T10:55:28;94151.59;;;29.30;33.14
9774;BME280;4926;42.670;23.316;2022-09-13T10:58:11;94154.78;;;28.98;33.07
9774;BME280;4926;42.670;23.316;2022-09-13T11:00:45;94142.09;;;28.81;33.13
9774;BME280;4926;42.670;23.316;2022-09-13T11:03:28;94160.34;;;27.87;34.05
9774;BME280;4926;42.670;23.316;2022-09-13T11:06:07;94171.56;;;26.93;34.92
9774;BME280;4926;42.670;23.316;2022-09-13T11:08:43;94181.25;;;25.83;36.16
9774;BME280;4926;42.670;23.316;2022-09-13T11:11:16;94169.94;;;25.99;36.26
9774;BME280;4926;42.670;23.316;2022-09-13T11:14:01;94173.28;;;26.59;35.14
9774;BME280;4926;42.670;23.316;2022-09-13T11:16:42;94168.16;;;26.75;34.50
9774;BME280;4926;42.670;23.316;2022-09-13T11:22:12;94166.75;;;26.32;34.82
9774;BME280;4926;42.670;23.316;2022-09-13T11:25:02;94159.38;;;26.22;34.64
9774;BME280;4926;42.670;23.316;2022-09-13T11:27:40;94151.06;;;26.57;34.33
9774;BME280;4926;42.670;23.316;2022-09-13T11:30:14;94152.63;;;26.51;34.37
9774;BME280;4926;42.670;23.316;2022-09-13T11:33:00;94149.72;;;25.72;35.20
9774;BME280;4926;42.670;23.316;2022-09-13T11:35:53;94140.34;;;25.87;34.83
9774;BME280;4926;42.670;23.316;2022-09-13T11:38:34;94136.78;;;26.11;34.58
9774;BME280;4926;42.670;23.316;2022-09-13T11:41:16;94135.16;;;26.34;34.87
9774;BME280;4926;42.670;23.316;2022-09-13T11:44:03;94138.47;;;26.77;34.43
9774;BME280;4926;42.670;23.316;2022-09-13T11:46:43;94142.47;;;26.55;34.76
9774;BME280;4926;42.670;23.316;2022-09-13T11:49:30;94150.63;;;26.69;34.57
9774;BME280;4926;42.670;23.316;2022-09-13T11:52:08;94146.25;;;26.82;34.59
9774;BME280;4926;42.670;23.316;2022-09-13T11:54:56;94136.88;;;27.86;33.17
9774;BME280;4926;42.670;23.316;2022-09-13T11:57:31;94118.63;;;28.16;32.79
9774;BME280;4926;42.670;23.316;2022-09-13T12:00:02;94123.44;;;28.39;32.27
9774;BME280;4926;42.670;23.316;2022-09-13T12:02:38;94126.22;;;27.98;32.20
9774;BME280;4926;42.670;23.316;2022-09-13T12:05:15;94123.13;;;28.30;32.23
9774;BME280;4926;42.670;23.316;2022-09-13T12:07:49;94120.38;;;28.67;31.24
9774;BME280;4926;42.670;23.316;2022-09-13T12:10:21;94129.03;;;27.91;32.08
9774;BME280;4926;42.670;23.316;2022-09-13T12:12:54;94123.31;;;28.16;32.01
9774;BME280;4926;42.670;23.316;2022-09-13T12:15:31;94118.19;;;28.18;31.86
9774;BME280;4926;42.670;23.316;2022-09-13T12:18:04;94112.81;;;28.44;32.07
9774;BME280;4926;42.670;23.316;2022-09-13T12:20:35;94115.75;;;28.87;32.14
9774;BME280;4926;42.670;23.316;2022-09-13T12:23:06;94101.13;;;29.24;31.35
9774;BME280;4926;42.670;23.316;2022-09-13T12:25:42;94099.25;;;28.64;30.61
9774;BME280;4926;42.670;23.316;2022-09-13T12:28:17;94101.53;;;28.05;31.57
9774;BME280;4926;42.670;23.316;2022-09-13T12:30:49;94109.31;;;28.07;31.13
9774;BME280;4926;42.670;23.316;2022-09-13T12:33:18;94095.81;;;27.89;31.46
9774;BME280;4926;42.670;23.316;2022-09-13T12:35:53;94117.69;;;27.93;32.04
9774;BME280;4926;42.670;23.316;2022-09-13T12:38:38;94112.22;;;27.89;31.99
9774;BME280;4926;42.670;23.316;2022-09-13T12:41:22;94112.31;;;28.53;31.55
9774;BME280;4926;42.670;23.316;2022-09-13T12:49:55;94103.25;;;27.85;31.42
9774;BME280;4926;42.670;23.316;2022-09-13T12:52:32;94107.94;;;27.92;31.69
9774;BME280;4926;42.670;23.316;2022-09-13T12:55:33;94094.75;;;27.80;32.24
9774;BME280;4926;42.670;23.316;2022-09-13T12:58:15;94114.16;;;27.92;32.52
9774;BME280;4926;42.670;23.316;2022-09-13T13:00:49;94098.75;;;28.09;31.50
9774;BME280;4926;42.670;23.316;2022-09-13T13:03:33;94099.31;;;27.93;31.41
9774;BME280;4926;42.670;23.316;2022-09-13T13:06:07;94116.25;;;27.33;32.22
9774;BME280;4926;42.670;23.316;2022-09-13T13:08:37;94106.84;;;27.79;32.04
9774;BME280;4926;42.670;23.316;2022-09-13T13:11:06;94108.13;;;27.71;32.03
9774;BME280;4926;42.670;23.316;2022-09-13T13:13:35;94111.16;;;27.80;32.95
9774;BME280;4926;42.670;23.316;2022-09-13T13:16:21;94124.13;;;27.21;33.40
9774;BME280;4926;42.670;23.316;2022-09-13T13:18:49;94134.53;;;26.89;33.84
9774;BME280;4926;42.670;23.316;2022-09-13T13:21:28;94133.84;;;26.71;34.19
9774;BME280;4926;42.670;23.316;2022-09-13T13:27:37;94117.75;;;27.41;33.57
9774;BME280;4926;42.670;23.316;2022-09-13T13:30:40;94121.50;;;27.62;33.44
9774;BME280;4926;42.670;23.316;2022-09-13T13:33:17;94120.81;;;27.95;32.85
9774;BME280;4926;42.670;23.316;2022-09-13T13:35:47;94123.19;;;27.45;33.16
9774;BME280;4926;42.670;23.316;2022-09-13T13:38:39;94139.69;;;26.66;34.63
9774;BME280;4926;42.670;23.316;2022-09-13T13:43:51;94147.09;;;26.65;34.54
9774;BME280;4926;42.670;23.316;2022-09-13T13:46:28;94144.13;;;26.31;34.80
9774;BME280;4926;42.670;23.316;2022-09-13T13:52:42;94139.13;;;26.16;34.20
9774;BME280;4926;42.670;23.316;2022-09-13T13:55:29;94171.09;;;25.06;36.51
9774;BME280;4926;42.670;23.316;2022-09-13T13:58:00;94166.03;;;24.91;36.41
9774;BME280;4926;42.670;23.316;2022-09-13T14:00:28;94166.75;;;24.74;37.10
9774;BME280;4926;42.670;23.316;2022-09-13T14:03:08;94174.94;;;24.81;37.48